MSR1015 VABB-VOBL
Flight info
| Callsign | MSR1015 |
|---|---|
| Flight time | N/A |
| Altitude | 37000 |
| Route | VEVAK2A EPKOS Q9 RIKBU RIKBU7F |
| Aircraft | B77W/H-SDE1E2E3FGHIJ2J3J4J5M1RWXY/LB1D1 |
Departure
| Time | 2026-05-05 14:01 |
|---|---|
| Airport | Chhatrapati Shivaji Maharaj International Airport (VABB) |
Arrival
| Time | N/A |
|---|---|
| Airport | Kempegowda International Airport Bengaluru (VOBL) |
| Time | Latitude | Longitude | Altitude | Speed | Heading |
|---|---|---|---|---|---|
| 2026-05-05 13:49 | 19.09251 | 72.87518 | 30 ft | 0 kts | 220° |
| 2026-05-05 13:51 | 19.09251 | 72.87519 | 30 ft | 0 kts | 220° |
| 2026-05-05 13:54 | 19.09264 | 72.87530 | 30 ft | 4 kts | 227° |
| 2026-05-05 13:54 | 19.09280 | 72.87553 | 30 ft | 4 kts | 239° |
| 2026-05-05 13:55 | 19.09294 | 72.87577 | 30 ft | 3 kts | 233° |
| 2026-05-05 13:55 | 19.09306 | 72.87597 | 30 ft | 4 kts | 263° |
| 2026-05-05 13:55 | 19.09302 | 72.87622 | 28 ft | 4 kts | 300° |
| 2026-05-05 13:55 | 19.09289 | 72.87642 | 30 ft | 1 kts | 309° |
| 2026-05-05 13:56 | 19.09287 | 72.87645 | 30 ft | 7 kts | 309° |
| 2026-05-05 13:58 | 19.08883 | 72.87578 | 31 ft | 0 kts | 269° |
| 2026-05-05 14:00 | 19.08882 | 72.87491 | 32 ft | 48 kts | 269° |
| 2026-05-05 14:01 | 19.08869 | 72.86752 | 34 ft | 150 kts | 267° |
| 2026-05-05 14:01 | 19.08811 | 72.85412 | 415 ft | 192 kts | 268° |
| 2026-05-05 14:01 | 19.08748 | 72.84108 | 1877 ft | 174 kts | 268° |
| 2026-05-05 14:01 | 19.08750 | 72.82789 | 2681 ft | 189 kts | 271° |
| 2026-05-05 14:02 | 19.08768 | 72.81298 | 2998 ft | 222 kts | 271° |
| 2026-05-05 14:02 | 19.08763 | 72.79503 | 3313 ft | 256 kts | 270° |
| 2026-05-05 14:02 | 19.08739 | 72.77587 | 4216 ft | 265 kts | 269° |
| 2026-05-05 14:02 | 19.08710 | 72.75614 | 5253 ft | 271 kts | 269° |
| 2026-05-05 14:03 | 19.08486 | 72.73643 | 6115 ft | 276 kts | 250° |
| 2026-05-05 14:03 | 19.07398 | 72.71954 | 7005 ft | 285 kts | 221° |
| 2026-05-05 14:03 | 19.05654 | 72.70957 | 8000 ft | 290 kts | 195° |
| 2026-05-05 14:03 | 19.03645 | 72.70870 | 8649 ft | 294 kts | 168° |
| 2026-05-05 14:04 | 19.01790 | 72.71782 | 8832 ft | 301 kts | 140° |
| 2026-05-05 14:04 | 19.00250 | 72.73220 | 8841 ft | 300 kts | 143° |
| 2026-05-05 14:04 | 18.98467 | 72.74353 | 8833 ft | 300 kts | 158° |
| 2026-05-05 14:04 | 18.96448 | 72.74936 | 8825 ft | 297 kts | 174° |
| 2026-05-05 14:05 | 18.94391 | 72.74931 | 8831 ft | 295 kts | 184° |
| 2026-05-05 14:05 | 18.92370 | 72.74801 | 8841 ft | 296 kts | 184° |
| 2026-05-05 14:05 | 18.90312 | 72.74689 | 8832 ft | 296 kts | 183° |
| 2026-05-05 14:05 | 18.88255 | 72.74598 | 8846 ft | 296 kts | 182° |
| 2026-05-05 14:06 | 18.86188 | 72.74524 | 8830 ft | 297 kts | 182° |
| 2026-05-05 14:06 | 18.84122 | 72.74461 | 8831 ft | 297 kts | 182° |
| 2026-05-05 14:06 | 18.82053 | 72.74403 | 8833 ft | 298 kts | 182° |
| 2026-05-05 14:06 | 18.79982 | 72.74346 | 8837 ft | 298 kts | 182° |
| 2026-05-05 14:07 | 18.77935 | 72.74469 | 8824 ft | 294 kts | 166° |
| 2026-05-05 14:07 | 18.76110 | 72.75402 | 9144 ft | 291 kts | 146° |
| 2026-05-05 14:07 | 18.74419 | 72.76648 | 9937 ft | 300 kts | 145° |
| 2026-05-05 14:07 | 18.72671 | 72.77945 | 10500 ft | 320 kts | 145° |
| 2026-05-05 14:08 | 18.70757 | 72.79368 | 10741 ft | 351 kts | 145° |
| 2026-05-05 14:08 | 18.68713 | 72.80887 | 11456 ft | 364 kts | 145° |
| 2026-05-05 14:08 | 18.66649 | 72.82418 | 12507 ft | 370 kts | 146° |
| 2026-05-05 14:08 | 18.64532 | 72.83985 | 13670 ft | 374 kts | 145° |
| 2026-05-05 14:09 | 18.62380 | 72.85576 | 14666 ft | 382 kts | 145° |
| 2026-05-05 14:09 | 18.60179 | 72.87199 | 15632 ft | 390 kts | 145° |
| 2026-05-05 14:09 | 18.57940 | 72.88850 | 16601 ft | 396 kts | 145° |
| 2026-05-05 14:09 | 18.55660 | 72.90531 | 17554 ft | 403 kts | 145° |
| 2026-05-05 14:10 | 18.53343 | 72.92236 | 18502 ft | 409 kts | 145° |
| 2026-05-05 14:10 | 18.51049 | 72.93922 | 19331 ft | 417 kts | 145° |
| 2026-05-05 14:10 | 18.48637 | 72.95694 | 20153 ft | 425 kts | 145° |
| 2026-05-05 14:10 | 18.46191 | 72.97491 | 20950 ft | 432 kts | 145° |
| 2026-05-05 14:11 | 18.43699 | 72.99322 | 21696 ft | 440 kts | 145° |
| 2026-05-05 14:11 | 18.41170 | 73.01178 | 22436 ft | 446 kts | 145° |
| 2026-05-05 14:11 | 18.38601 | 73.03064 | 23141 ft | 452 kts | 145° |
| 2026-05-05 14:11 | 18.35999 | 73.04972 | 23796 ft | 459 kts | 145° |
| 2026-05-05 14:12 | 18.33396 | 73.06881 | 24403 ft | 465 kts | 145° |
| 2026-05-05 14:12 | 18.30690 | 73.08865 | 25035 ft | 471 kts | 146° |
| 2026-05-05 14:12 | 18.28029 | 73.10816 | 25729 ft | 473 kts | 146° |
| 2026-05-05 14:12 | 18.25313 | 73.12805 | 26394 ft | 476 kts | 146° |
| 2026-05-05 14:13 | 18.22581 | 73.14807 | 26979 ft | 481 kts | 146° |
| 2026-05-05 14:13 | 18.19825 | 73.16824 | 27535 ft | 486 kts | 146° |
| 2026-05-05 14:13 | 18.17030 | 73.18869 | 28096 ft | 489 kts | 147° |
| 2026-05-05 14:13 | 18.14228 | 73.20918 | 28666 ft | 493 kts | 147° |
| 2026-05-05 14:14 | 18.11407 | 73.22981 | 29191 ft | 496 kts | 147° |
| 2026-05-05 14:14 | 18.08558 | 73.25064 | 29705 ft | 500 kts | 147° |
| 2026-05-05 14:14 | 18.05686 | 73.27163 | 30180 ft | 504 kts | 147° |
| 2026-05-05 14:14 | 18.02798 | 73.29270 | 30636 ft | 508 kts | 147° |
| 2026-05-05 14:15 | 17.99882 | 73.31396 | 31045 ft | 512 kts | 147° |
| 2026-05-05 14:15 | 17.96956 | 73.33530 | 31555 ft | 512 kts | 147° |
| 2026-05-05 14:15 | 17.94045 | 73.35653 | 32212 ft | 509 kts | 147° |
| 2026-05-05 14:15 | 17.91136 | 73.37776 | 32827 ft | 508 kts | 147° |
| 2026-05-05 14:16 | 17.88245 | 73.39886 | 33376 ft | 507 kts | 146° |
| 2026-05-05 14:16 | 17.85339 | 73.42003 | 33865 ft | 508 kts | 146° |
| 2026-05-05 14:16 | 17.82436 | 73.44117 | 34398 ft | 507 kts | 146° |
| 2026-05-05 14:16 | 17.79544 | 73.46222 | 35082 ft | 502 kts | 146° |
| 2026-05-05 14:17 | 17.76688 | 73.48300 | 35750 ft | 499 kts | 146° |
| 2026-05-05 14:17 | 17.73878 | 73.50344 | 36328 ft | 496 kts | 146° |
| 2026-05-05 14:17 | 17.71037 | 73.52409 | 36805 ft | 496 kts | 146° |
| 2026-05-05 14:17 | 17.68217 | 73.54458 | 36895 ft | 490 kts | 146° |
| 2026-05-05 14:18 | 17.62643 | 73.58505 | 36913 ft | 491 kts | 146° |
| 2026-05-05 14:18 | 17.56938 | 73.62643 | 36910 ft | 505 kts | 146° |
| 2026-05-05 14:19 | 17.51123 | 73.66860 | 36910 ft | 516 kts | 146° |
| 2026-05-05 14:19 | 17.45170 | 73.71174 | 36899 ft | 523 kts | 146° |
| 2026-05-05 14:20 | 17.40188 | 73.74783 | 36903 ft | 523 kts | 146° |
| 2026-05-05 14:20 | 17.34202 | 73.79113 | 36903 ft | 522 kts | 146° |
| 2026-05-05 14:21 | 17.28236 | 73.83426 | 36896 ft | 521 kts | 146° |
| 2026-05-05 14:21 | 17.22285 | 73.87727 | 36911 ft | 519 kts | 146° |
| 2026-05-05 14:22 | 17.20765 | 73.88824 | 36911 ft | 518 kts | 146° |
| 2026-05-05 14:26 | 17.20672 | 73.88891 | 36900 ft | 518 kts | 146° |
| 2026-05-05 14:26 | 17.14734 | 73.93177 | 36906 ft | 517 kts | 146° |
| 2026-05-05 14:27 | 17.08821 | 73.97441 | 36908 ft | 516 kts | 146° |
| 2026-05-05 14:27 | 17.02916 | 74.01697 | 36931 ft | 515 kts | 146° |
| 2026-05-05 14:28 | 16.97006 | 74.05952 | 36934 ft | 514 kts | 146° |
| 2026-05-05 14:28 | 16.91161 | 74.10250 | 36930 ft | 514 kts | 142° |
| 2026-05-05 14:29 | 16.85968 | 74.15359 | 36929 ft | 514 kts | 132° |
| 2026-05-05 14:29 | 16.81504 | 74.21199 | 36936 ft | 514 kts | 128° |
| 2026-05-05 14:30 | 16.77116 | 74.27101 | 36935 ft | 514 kts | 128° |
| 2026-05-05 14:30 | 16.72699 | 74.32966 | 36938 ft | 514 kts | 129° |
| 2026-05-05 14:31 | 16.68285 | 74.38771 | 36933 ft | 514 kts | 129° |
| 2026-05-05 14:31 | 16.63836 | 74.44614 | 36938 ft | 514 kts | 129° |
| 2026-05-05 14:32 | 16.59395 | 74.50448 | 36938 ft | 514 kts | 129° |
| 2026-05-05 14:32 | 16.54948 | 74.56289 | 36936 ft | 514 kts | 129° |
| 2026-05-05 14:33 | 16.50506 | 74.62116 | 36939 ft | 514 kts | 129° |
| 2026-05-05 14:33 | 16.46076 | 74.67925 | 36937 ft | 514 kts | 129° |
| 2026-05-05 14:34 | 16.41635 | 74.73749 | 36945 ft | 514 kts | 129° |
| 2026-05-05 14:34 | 16.37184 | 74.79581 | 36945 ft | 514 kts | 129° |
| 2026-05-05 14:35 | 16.32732 | 74.85413 | 36943 ft | 514 kts | 129° |
| 2026-05-05 14:35 | 16.28270 | 74.91253 | 36947 ft | 514 kts | 129° |
| 2026-05-05 14:36 | 16.23846 | 74.97037 | 36940 ft | 514 kts | 129° |
| 2026-05-05 14:36 | 16.19395 | 75.02849 | 36944 ft | 513 kts | 129° |
| 2026-05-05 14:37 | 16.14943 | 75.08665 | 36944 ft | 513 kts | 129° |
| 2026-05-05 14:37 | 16.10494 | 75.14470 | 36942 ft | 513 kts | 129° |
| 2026-05-05 14:38 | 16.06047 | 75.20265 | 36944 ft | 513 kts | 129° |
| 2026-05-05 14:38 | 16.01597 | 75.26059 | 36947 ft | 513 kts | 129° |
| 2026-05-05 14:39 | 15.97169 | 75.31821 | 36913 ft | 513 kts | 129° |
| 2026-05-05 14:39 | 15.92717 | 75.37611 | 36903 ft | 512 kts | 129° |
| 2026-05-05 14:40 | 15.88271 | 75.43386 | 36900 ft | 511 kts | 129° |
| 2026-05-05 14:40 | 15.83829 | 75.49152 | 36900 ft | 510 kts | 129° |
| 2026-05-05 14:41 | 15.79396 | 75.54903 | 36927 ft | 510 kts | 129° |
| 2026-05-05 14:41 | 15.74959 | 75.60654 | 36914 ft | 510 kts | 129° |
| 2026-05-05 14:42 | 15.70521 | 75.66402 | 36915 ft | 510 kts | 129° |
| 2026-05-05 14:42 | 15.66085 | 75.72144 | 36928 ft | 510 kts | 129° |
| 2026-05-05 14:43 | 15.61643 | 75.77889 | 36913 ft | 510 kts | 129° |
| 2026-05-05 14:43 | 15.57227 | 75.83595 | 36906 ft | 510 kts | 129° |
| 2026-05-05 14:44 | 15.52783 | 75.89338 | 36895 ft | 511 kts | 129° |
| 2026-05-05 14:44 | 15.48328 | 75.95081 | 36898 ft | 511 kts | 129° |
| 2026-05-05 14:45 | 15.43870 | 76.00827 | 36890 ft | 511 kts | 129° |
| 2026-05-05 14:45 | 15.39414 | 76.06569 | 36891 ft | 511 kts | 129° |
| 2026-05-05 14:46 | 15.34953 | 76.12314 | 36879 ft | 511 kts | 129° |
| 2026-05-05 14:46 | 15.30524 | 76.18011 | 36869 ft | 511 kts | 129° |
| 2026-05-05 14:47 | 15.26068 | 76.23742 | 36862 ft | 511 kts | 129° |
| 2026-05-05 14:47 | 15.21600 | 76.29480 | 36856 ft | 511 kts | 129° |
| 2026-05-05 14:48 | 15.17124 | 76.35178 | 36860 ft | 510 kts | 133° |
| 2026-05-05 14:48 | 15.14487 | 76.37607 | 36852 ft | 506 kts | 147° |
| 2026-05-05 14:48 | 15.11525 | 76.39563 | 36864 ft | 506 kts | 149° |
| 2026-05-05 14:49 | 15.05492 | 76.43320 | 36861 ft | 506 kts | 149° |
| 2026-05-05 14:49 | 14.99470 | 76.47135 | 36862 ft | 507 kts | 149° |
| 2026-05-05 14:50 | 14.93488 | 76.51026 | 36861 ft | 508 kts | 148° |
| 2026-05-05 14:50 | 14.87565 | 76.54913 | 36860 ft | 508 kts | 148° |
| 2026-05-05 14:51 | 14.81590 | 76.58831 | 36861 ft | 508 kts | 148° |
| 2026-05-05 14:51 | 14.75626 | 76.62732 | 36863 ft | 508 kts | 148° |
| 2026-05-05 14:52 | 14.69656 | 76.66632 | 36861 ft | 507 kts | 148° |
| 2026-05-05 14:52 | 14.63687 | 76.70529 | 36862 ft | 507 kts | 148° |
| 2026-05-05 14:53 | 14.57735 | 76.74411 | 36862 ft | 503 kts | 148° |
| 2026-05-05 14:53 | 14.54829 | 76.76307 | 36855 ft | 484 kts | 148° |
| 2026-05-05 14:53 | 14.52028 | 76.78135 | 36842 ft | 471 kts | 148° |
| 2026-05-05 14:54 | 14.49284 | 76.79924 | 36516 ft | 465 kts | 148° |
| 2026-05-05 14:54 | 14.46577 | 76.81687 | 36021 ft | 462 kts | 148° |
| 2026-05-05 14:54 | 14.43816 | 76.83485 | 35436 ft | 467 kts | 148° |
| 2026-05-05 14:54 | 14.41085 | 76.85262 | 34856 ft | 472 kts | 148° |
| 2026-05-05 14:55 | 14.38304 | 76.87073 | 34378 ft | 475 kts | 148° |
| 2026-05-05 14:55 | 14.35504 | 76.88895 | 34069 ft | 473 kts | 148° |
| 2026-05-05 14:55 | 14.32739 | 76.90694 | 33856 ft | 469 kts | 148° |
| 2026-05-05 14:55 | 14.29986 | 76.92486 | 33425 ft | 466 kts | 148° |
| 2026-05-05 14:56 | 14.27256 | 76.94261 | 32881 ft | 463 kts | 148° |
| 2026-05-05 14:56 | 14.24547 | 76.96023 | 32352 ft | 459 kts | 148° |
| 2026-05-05 14:56 | 14.21852 | 76.97774 | 31817 ft | 456 kts | 148° |
| 2026-05-05 14:56 | 14.19179 | 76.99513 | 31286 ft | 452 kts | 148° |
| 2026-05-05 14:57 | 14.16522 | 77.01244 | 30765 ft | 449 kts | 148° |
| 2026-05-05 14:57 | 14.13896 | 77.02955 | 30235 ft | 446 kts | 149° |
| 2026-05-05 14:57 | 14.11282 | 77.04658 | 29723 ft | 443 kts | 149° |
| 2026-05-05 14:57 | 14.08721 | 77.06327 | 29199 ft | 439 kts | 149° |
| 2026-05-05 14:58 | 14.06147 | 77.08002 | 28681 ft | 436 kts | 149° |
| 2026-05-05 14:58 | 14.03593 | 77.09665 | 28165 ft | 432 kts | 149° |
| 2026-05-05 14:58 | 14.01063 | 77.11310 | 27657 ft | 428 kts | 149° |
| 2026-05-05 14:58 | 13.98554 | 77.12942 | 27145 ft | 425 kts | 149° |
| 2026-05-05 14:59 | 13.96065 | 77.14559 | 26643 ft | 422 kts | 149° |
| 2026-05-05 14:59 | 13.93585 | 77.16171 | 26139 ft | 419 kts | 149° |
| 2026-05-05 14:59 | 13.91138 | 77.17761 | 25646 ft | 415 kts | 149° |
| 2026-05-05 14:59 | 13.88705 | 77.19341 | 25152 ft | 412 kts | 149° |
| 2026-05-05 15:00 | 13.86291 | 77.20909 | 24663 ft | 408 kts | 149° |
| 2026-05-05 15:00 | 13.84696 | 77.21946 | 24339 ft | 406 kts | 149° |
| 2026-05-05 15:00 | 13.81524 | 77.24006 | 23703 ft | 401 kts | 150° |
| 2026-05-05 15:00 | 13.79170 | 77.25533 | 23225 ft | 398 kts | 150° |
| 2026-05-05 15:01 | 13.76839 | 77.27045 | 22759 ft | 395 kts | 149° |
| 2026-05-05 15:01 | 13.74523 | 77.28547 | 22291 ft | 392 kts | 149° |
| 2026-05-05 15:01 | 13.72227 | 77.30036 | 21827 ft | 389 kts | 149° |
| 2026-05-05 15:01 | 13.69948 | 77.31513 | 21363 ft | 386 kts | 149° |
| 2026-05-05 15:02 | 13.67682 | 77.32982 | 20904 ft | 382 kts | 149° |
| 2026-05-05 15:02 | 13.65442 | 77.34433 | 20448 ft | 380 kts | 149° |
| 2026-05-05 15:02 | 13.63241 | 77.35860 | 19996 ft | 377 kts | 149° |
| 2026-05-05 15:02 | 13.61029 | 77.37294 | 19546 ft | 374 kts | 148° |
| 2026-05-05 15:03 | 13.58834 | 77.38715 | 19090 ft | 372 kts | 148° |
| 2026-05-05 15:03 | 13.56698 | 77.40191 | 18642 ft | 369 kts | 145° |
| 2026-05-05 15:03 | 13.54635 | 77.41750 | 18200 ft | 366 kts | 143° |
| 2026-05-05 15:03 | 13.52605 | 77.43318 | 17746 ft | 364 kts | 143° |
| 2026-05-05 15:04 | 13.50593 | 77.44875 | 17287 ft | 361 kts | 143° |
| 2026-05-05 15:04 | 13.48588 | 77.46414 | 16849 ft | 359 kts | 143° |